Time;durP1;ratioP1;P1;durP2;ratioP2;P2;SDS_P1;SDS_P2;PMS_P1;PMS_P2;Temp;Humidity;BMP_temperature;BMP_pressure;BME280_temperature;BME280_humidity;BME280_pressure;Samples;Min_cycle;Max_cycle;Signal;HPM_P1;HPM_P2
2023/07/13 00:00:36;;;;;;;5.97;1.70;;;;;;;17.13;63.62;101300.78;7380880;19;19914;-63
2023/07/13 00:03:05;;;;;;;9.65;2.10;;;;;;;17.10;64.11;101303.94;7381482;19;19922;-63
2023/07/13 00:05:36;;;;;;;5.22;2.00;;;;;;;17.06;64.02;101310.00;7381613;19;19930;-64
2023/07/13 00:08:05;;;;;;;3.42;1.67;;;;;;;17.03;64.09;101303.09;7381534;19;19922;-63
2023/07/13 00:10:34;;;;;;;4.07;1.70;;;;;;;17.00;64.37;101297.25;7382137;19;20277;-65
2023/07/13 00:13:03;;;;;;;6.68;1.95;;;;;;;16.95;64.09;101294.31;7384547;19;19922;-63
2023/07/13 00:15:32;;;;;;;4.47;2.10;;;;;;;16.93;64.82;101301.81;7383268;19;19944;-64
2023/07/13 00:18:01;;;;;;;2.70;1.65;;;;;;;16.91;64.65;101302.06;7381543;19;20280;-63
2023/07/13 00:20:30;;;;;;;7.82;2.28;;;;;;;16.86;64.86;101301.00;7381043;19;19915;-63
2023/07/13 00:23:02;;;;;;;3.28;1.70;;;;;;;16.84;65.01;101301.19;7382688;19;19918;-63
2023/07/13 00:25:30;;;;;;;4.80;1.90;;;;;;;16.72;64.79;101305.56;7382485;19;19974;-64
2023/07/13 00:27:59;;;;;;;3.17;1.85;;;;;;;16.65;65.20;101310.16;7381579;19;19930;-64
2023/07/13 00:30:28;;;;;;;3.90;1.42;;;;;;;16.60;65.69;101304.50;7380798;19;19929;-64
2023/07/13 00:32:57;;;;;;;5.93;1.80;;;;;;;16.56;65.86;101305.94;7380153;19;19931;-65
2023/07/13 00:35:26;;;;;;;7.22;2.40;;;;;;;16.51;65.60;101311.13;7386061;19;19923;-64
2023/07/13 00:37:56;;;;;;;5.90;1.45;;;;;;;16.49;65.62;101310.50;7382522;19;19930;-63
2023/07/13 00:40:27;;;;;;;3.10;1.40;;;;;;;16.44;66.39;101308.38;7379944;19;19927;-63
2023/07/13 00:42:59;;;;;;;5.20;1.67;;;;;;;16.39;66.06;101304.63;7380888;19;19931;-64
2023/07/13 00:45:58;;;;;;;9.93;2.00;;;;;;;16.24;67.66;101302.91;7380307;19;19937;-63
2023/07/13 00:48:30;;;;;;;8.30;1.55;;;;;;;16.28;66.61;101303.31;7381499;19;20325;-63
2023/07/13 00:51:03;;;;;;;12.18;2.20;;;;;;;16.27;66.88;101301.63;7378728;19;19934;-64
2023/07/13 00:53:35;;;;;;;5.40;2.00;;;;;;;16.24;67.05;101302.91;7381520;19;19922;-63
2023/07/13 00:56:07;;;;;;;7.00;1.83;;;;;;;16.22;67.87;101304.16;7378015;19;19915;-63
2023/07/13 00:58:37;;;;;;;7.75;1.67;;;;;;;16.16;67.38;101311.22;7379880;19;19919;-63
2023/07/13 01:01:06;;;;;;;5.78;1.63;;;;;;;16.15;67.25;101309.53;7377104;19;20552;-63
2023/07/13 01:03:37;;;;;;;8.07;1.55;;;;;;;16.12;68.33;101307.25;7382721;19;19978;-63
2023/07/13 01:06:06;;;;;;;5.95;1.50;;;;;;;16.15;67.45;101309.53;7380793;19;19930;-63
2023/07/13 01:08:35;;;;;;;9.48;1.98;;;;;;;16.17;67.31;101304.75;7381621;19;19922;-62
2023/07/13 01:11:07;;;;;;;9.63;1.58;;;;;;;16.19;68.47;101308.09;7380240;19;20579;-62
2023/07/13 01:13:36;;;;;;;4.43;1.50;;;;;;;16.20;67.88;101312.50;7385088;19;20360;-62
2023/07/13 01:16:15;;;;;;;7.28;1.55;;;;;;;16.22;68.27;101310.41;7380502;19;21036;-63
2023/07/13 01:18:43;;;;;;;6.47;1.52;;;;;;;16.25;67.56;101309.19;7379810;19;19926;-62
2023/07/13 01:21:18;;;;;;;3.53;1.33;;;;;;;16.31;68.09;101317.34;7380161;19;20547;-62
2023/07/13 01:23:48;;;;;;;5.53;2.17;;;;;;;16.35;67.97;101323.25;7378942;19;19926;-63
2023/07/13 01:26:16;;;;;;;7.45;1.58;;;;;;;16.33;67.74;101318.00;7379308;19;19958;-63
2023/07/13 01:28:45;;;;;;;9.15;2.05;;;;;;;16.29;68.55;101321.31;7374044;19;20031;-65
2023/07/13 01:31:14;;;;;;;13.23;1.70;;;;;;;16.32;68.54;101310.88;7365121;19;19951;-63
2023/07/13 01:33:45;;;;;;;8.65;1.65;;;;;;;16.34;68.44;101318.84;7338146;19;19957;-63
2023/07/13 01:36:16;;;;;;;6.45;1.95;;;;;;;16.34;69.03;101324.28;7344008;19;19931;-65
2023/07/13 01:38:45;;;;;;;5.45;1.95;;;;;;;16.34;69.00;101321.56;7341259;19;20962;-62
2023/07/13 01:41:14;;;;;;;8.85;1.85;;;;;;;16.34;68.90;101319.66;7341059;19;19966;-63
2023/07/13 01:43:43;;;;;;;6.63;1.30;;;;;;;16.31;69.71;101320.06;7343409;19;20001;-64
2023/07/13 01:46:12;;;;;;;7.30;1.50;;;;;;;16.28;69.59;101317.75;7338675;19;19914;-63
2023/07/13 01:48:40;;;;;;;10.60;1.80;;;;;;;16.28;69.51;101320.47;7342071;19;19922;-63
2023/07/13 01:51:09;;;;;;;6.17;1.90;;;;;;;16.28;69.85;101320.47;7344348;19;19923;-64
2023/07/13 01:53:40;;;;;;;8.80;2.17;;;;;;;16.25;70.60;101322.75;7344926;19;19927;-63
2023/07/13 01:56:09;;;;;;;8.27;1.67;;;;;;;16.26;69.96;101319.00;7346339;19;19922;-64
2023/07/13 01:58:38;;;;;;;6.50;1.60;;;;;;;16.26;70.60;101327.16;7364469;19;19928;-63
2023/07/13 02:01:07;;;;;;;9.38;1.75;;;;;;;16.26;70.19;101327.16;7372515;19;19923;-64
2023/07/13 02:03:36;;;;;;;7.40;1.63;;;;;;;16.25;70.25;101323.59;7375160;19;20863;-63
2023/07/13 02:06:04;;;;;;;5.03;1.52;;;;;;;16.24;70.80;101335.50;7377304;19;19970;-62
2023/07/13 02:08:35;;;;;;;10.10;2.10;;;;;;;16.26;70.83;101338.88;7375954;19;19933;-65
2023/07/13 02:11:08;;;;;;;8.40;1.77;;;;;;;16.24;70.97;101332.81;7384623;19;19919;-63
2023/07/13 02:13:36;;;;;;;4.70;2.13;;;;;;;16.23;71.29;101339.28;7384495;19;19929;-65
2023/07/13 02:16:06;;;;;;;7.90;2.05;;;;;;;16.20;70.82;101339.69;7384933;19;19946;-62
2023/07/13 02:18:35;;;;;;;7.10;1.85;;;;;;;16.18;70.97;101330.88;7384849;19;19918;-62
2023/07/13 02:21:03;;;;;;;7.40;1.73;;;;;;;16.19;71.47;101335.28;7384177;19;19933;-62
2023/07/13 02:23:33;;;;;;;6.60;1.85;;;;;;;16.17;71.60;101331.94;7384877;19;20344;-63
2023/07/13 02:26:05;;;;;;;11.32;1.98;;;;;;;16.17;71.88;101331.09;7383939;19;19935;-62
2023/07/13 02:28:36;;;;;;;4.47;1.50;;;;;;;16.17;72.07;101334.66;7385875;19;20392;-63
2023/07/13 02:31:10;;;;;;;8.18;1.77;;;;;;;16.20;72.52;101333.41;7384197;19;19962;-63
2023/07/13 02:33:39;;;;;;;9.02;1.85;;;;;;;16.21;70.85;101338.66;7382964;19;19962;-63
2023/07/13 02:36:08;;;;;;;6.10;1.90;;;;;;;16.24;71.56;101326.53;7390058;19;19918;-63
2023/07/13 02:38:37;;;;;;;9.32;1.92;;;;;;;16.25;71.53;101331.75;7383371;19;19922;-63
2023/07/13 02:41:06;;;;;;;6.97;2.58;;;;;;;16.24;71.77;101330.09;7383948;19;19924;-63
2023/07/13 02:43:38;;;;;;;7.05;1.83;;;;;;;16.23;71.73;101328.41;7386005;19;19998;-63
2023/07/13 02:46:08;;;;;;;7.07;1.83;;;;;;;16.24;71.39;101323.81;7382575;19;19925;-63
2023/07/13 02:48:37;;;;;;;5.53;2.08;;;;;;;16.24;71.58;101335.50;7385665;19;20325;-63
2023/07/13 02:51:06;;;;;;;8.13;2.10;;;;;;;16.25;71.82;101334.47;7383704;19;19970;-63
2023/07/13 02:53:35;;;;;;;4.25;1.65;;;;;;;16.26;71.61;101340.75;7383504;19;19922;-63
2023/07/13 02:56:04;;;;;;;10.70;2.28;;;;;;;16.27;72.25;101326.09;7383322;19;20353;-63
2023/07/13 02:58:35;;;;;;;9.65;1.80;;;;;;;16.28;71.75;101330.50;7383935;19;19923;-63
2023/07/13 03:01:10;;;;;;;11.85;2.20;;;;;;;16.23;72.58;101327.56;7383294;19;19923;-63
2023/07/13 03:03:39;;;;;;;11.23;2.65;;;;;;;16.25;72.23;101325.50;7384089;19;19925;-63
2023/07/13 03:06:08;;;;;;;5.25;1.42;;;;;;;16.27;72.30;101324.22;7381868;19;19923;-64
2023/07/13 03:08:37;;;;;;;7.32;1.80;;;;;;;16.28;72.28;101325.91;7382541;19;19945;-65
2023/07/13 03:11:08;;;;;;;5.70;2.22;;;;;;;16.30;72.04;101326.56;7383267;19;20027;-63
2023/07/13 03:13:37;;;;;;;6.25;1.80;;;;;;;16.30;71.95;101329.28;7385848;19;19951;-64
2023/07/13 03:16:10;;;;;;;8.45;2.00;;;;;;;16.31;72.56;101328.22;7382859;19;20276;-64
2023/07/13 03:18:39;;;;;;;8.10;2.35;;;;;;;16.33;72.30;101328.03;7379284;19;19942;-63
2023/07/13 03:21:08;;;;;;;8.55;2.03;;;;;;;16.35;72.38;101337.63;7381064;19;19934;-63
2023/07/13 03:23:38;;;;;;;7.28;1.63;;;;;;;16.36;72.87;101338.47;7382122;19;19925;-63
2023/07/13 03:26:09;;;;;;;8.35;1.75;;;;;;;16.37;72.71;101340.16;7382847;19;19918;-64
2023/07/13 03:28:39;;;;;;;6.30;1.80;;;;;;;16.35;72.60;101336.84;7378117;19;19923;-64
2023/07/13 03:31:13;;;;;;;7.20;2.30;;;;;;;16.32;73.03;101342.66;7379161;19;19923;-63
2023/07/13 03:33:42;;;;;;;13.25;2.00;;;;;;;16.31;73.83;101336.38;7380848;19;19929;-63
2023/07/13 03:36:20;;;;;;;4.10;1.40;;;;;;;16.27;73.70;101329.66;7386505;19;20139;-63
2023/07/13 03:38:49;;;;;;;11.93;2.40;;;;;;;16.29;73.48;101343.06;7384798;19;19935;-63
2023/07/13 03:41:18;;;;;;;8.93;1.77;;;;;;;16.29;73.23;101338.47;7384217;19;19930;-63
2023/07/13 03:43:47;;;;;;;6.65;1.88;;;;;;;16.29;73.46;101341.19;7382498;19;19987;-63
2023/07/13 03:46:20;;;;;;;8.80;2.00;;;;;;;16.24;74.23;101340.97;7382091;19;19922;-63
2023/07/13 03:48:50;;;;;;;10.98;2.47;;;;;;;16.23;74.54;101341.16;7383169;19;19918;-63
2023/07/13 03:51:20;;;;;;;9.38;2.47;;;;;;;16.20;73.79;101336.13;7381786;19;19918;-63
2023/07/13 03:53:50;;;;;;;11.52;2.65;;;;;;;16.19;74.37;101343.44;7380448;19;19925;-63
2023/07/13 03:56:21;;;;;;;7.65;2.00;;;;;;;16.18;74.14;101333.59;7382313;19;19974;-63
2023/07/13 03:58:50;;;;;;;10.35;2.42;;;;;;;16.17;74.30;101350.97;7381821;19;19929;-63
2023/07/13 04:01:25;;;;;;;8.02;1.80;;;;;;;16.17;75.13;101352.84;7381919;19;20372;-63
2023/07/13 04:03:54;;;;;;;9.18;2.17;;;;;;;16.18;75.29;101355.34;7381486;19;19923;-64
2023/07/13 04:06:26;;;;;;;11.63;2.30;;;;;;;16.14;74.71;101359.50;7382882;19;19915;-64
2023/07/13 04:08:57;;;;;;;9.40;2.35;;;;;;;16.13;74.97;101359.72;7382834;19;19922;-64
2023/07/13 04:11:29;;;;;;;7.57;2.35;;;;;;;16.07;75.30;101368.69;7382863;19;19990;-62
2023/07/13 04:13:58;;;;;;;10.63;2.65;;;;;;;16.08;75.21;101367.66;7383965;19;19926;-65
2023/07/13 04:16:30;;;;;;;14.73;2.88;;;;;;;16.08;75.19;101368.50;7383767;19;19978;-63
2023/07/13 04:19:00;;;;;;;5.50;1.95;;;;;;;16.09;75.57;101374.75;7381508;19;19947;-64
2023/07/13 04:21:30;;;;;;;8.57;1.83;;;;;;;16.08;75.28;101376.63;7382773;19;19918;-64
2023/07/13 04:24:00;;;;;;;7.30;2.50;;;;;;;16.09;75.20;101372.03;7380435;19;19923;-63
2023/07/13 04:26:29;;;;;;;7.30;2.38;;;;;;;16.11;75.20;101375.38;7383041;19;19974;-63
2023/07/13 04:28:59;;;;;;;8.75;2.22;;;;;;;16.09;75.12;101372.03;7382719;19;19919;-63
2023/07/13 04:31:30;;;;;;;9.55;2.00;;;;;;;16.08;75.67;101375.78;7379114;19;20272;-63
2023/07/13 04:33:59;;;;;;;8.68;2.20;;;;;;;16.02;75.23;101379.31;7378951;19;19943;-65
2023/07/13 04:36:29;;;;;;;11.63;2.53;;;;;;;15.97;76.07;101379.91;7381979;19;19925;-63
2023/07/13 04:38:58;;;;;;;7.57;2.55;;;;;;;16.01;75.81;101385.78;7381045;19;19931;-63
2023/07/13 04:41:28;;;;;;;9.75;2.10;;;;;;;16.02;75.89;101377.44;7383079;19;19929;-63
2023/07/13 04:43:56;;;;;;;6.25;2.40;;;;;;;16.06;75.53;101380.56;7380294;19;19935;-64
2023/07/13 04:46:25;;;;;;;7.50;2.40;;;;;;;16.09;75.35;101388.34;7382020;19;19922;-63
2023/07/13 04:48:57;;;;;;;7.60;2.10;;;;;;;16.11;76.21;101378.09;7380898;19;19926;-62
2023/07/13 04:51:26;;;;;;;8.05;2.28;;;;;;;16.16;75.61;101387.34;7379158;19;19950;-63
2023/07/13 04:53:55;;;;;;;6.95;2.20;;;;;;;16.23;75.84;101388.22;7380549;19;19923;-65
2023/07/13 04:56:24;;;;;;;9.68;2.80;;;;;;;16.22;75.93;101394.69;7380013;19;20307;-63
2023/07/13 04:58:52;;;;;;;7.20;1.88;;;;;;;16.19;75.77;101389.66;7379560;19;19915;-63
2023/07/13 05:01:21;;;;;;;14.85;2.40;;;;;;;16.20;76.02;101388.63;7375764;19;19922;-64
2023/07/13 05:03:50;;;;;;;8.70;2.65;;;;;;;16.18;75.75;101385.25;7378400;19;19922;-63
2023/07/13 05:06:21;;;;;;;9.65;2.90;;;;;;;16.16;76.29;101387.34;7376059;19;19918;-64
2023/07/13 05:08:50;;;;;;;10.75;2.58;;;;;;;16.15;75.75;101399.25;7377786;19;19919;-63
2023/07/13 05:11:21;;;;;;;9.93;2.30;;;;;;;16.15;76.52;101401.97;7376667;19;20664;-64
2023/07/13 05:13:50;;;;;;;5.47;2.15;;;;;;;16.18;76.06;101407.00;7383992;19;19986;-64
2023/07/13 05:16:19;;;;;;;8.65;2.30;;;;;;;16.23;75.44;101403.69;7375668;19;20367;-63
2023/07/13 05:18:47;;;;;;;9.27;2.90;;;;;;;16.27;75.51;101407.66;7381413;19;19922;-64
2023/07/13 05:21:16;;;;;;;11.82;2.58;;;;;;;16.30;75.31;101410.00;7376461;19;19923;-64
2023/07/13 05:23:48;;;;;;;13.45;3.67;;;;;;;16.30;76.09;101402.69;7377478;19;20795;-64
2023/07/13 05:26:17;;;;;;;16.60;4.18;;;;;;;16.27;75.78;101416.66;7376756;19;19914;-64
2023/07/13 05:28:47;;;;;;;9.90;2.80;;;;;;;16.29;75.78;101424.63;7377292;19;19937;-64
2023/07/13 05:31:16;;;;;;;11.13;2.65;;;;;;;16.27;75.45;101422.09;7378155;19;19931;-63
2023/07/13 05:33:45;;;;;;;8.32;2.45;;;;;;;16.29;75.56;101422.75;7376881;19;19922;-63
2023/07/13 05:36:13;;;;;;;8.88;2.00;;;;;;;16.33;76.15;101423.19;7379183;19;19922;-64
2023/07/13 05:38:42;;;;;;;9.60;2.67;;;;;;;16.37;75.59;101434.50;7379047;19;19926;-63
2023/07/13 05:41:14;;;;;;;7.35;2.50;;;;;;;16.38;75.90;101430.75;7380698;19;19968;-63
2023/07/13 05:43:42;;;;;;;8.68;2.70;;;;;;;16.39;75.90;101429.72;7383802;19;19941;-64
2023/07/13 05:46:11;;;;;;;7.13;2.10;;;;;;;16.41;75.86;101425.75;7385835;19;19963;-64
2023/07/13 05:48:40;;;;;;;9.50;2.47;;;;;;;16.45;75.41;101434.31;7384946;19;20538;-64
2023/07/13 05:51:09;;;;;;;11.38;2.50;;;;;;;16.49;75.62;101424.72;7383341;19;19921;-63
2023/07/13 05:53:37;;;;;;;10.73;2.22;;;;;;;16.53;75.88;101426.00;7386322;19;19925;-65
2023/07/13 05:56:07;;;;;;;10.52;3.10;;;;;;;16.55;75.72;101446.53;7385375;19;19919;-64
2023/07/13 05:58:38;;;;;;;7.15;2.10;;;;;;;16.57;76.61;101425.41;7383816;19;19980;-64
2023/07/13 06:01:12;;;;;;;8.48;2.40;;;;;;;16.60;76.35;101438.63;7384710;19;19934;-63
2023/07/13 06:03:41;;;;;;;8.57;2.50;;;;;;;16.63;75.97;101440.94;7381756;19;19951;-63
2023/07/13 06:06:12;;;;;;;9.25;3.13;;;;;;;16.68;76.10;101434.91;7384851;19;19929;-64
2023/07/13 06:08:41;;;;;;;10.90;2.45;;;;;;;16.73;75.41;101433.25;7384286;19;19926;-64
2023/07/13 06:11:17;;;;;;;12.00;2.75;;;;;;;16.80;75.93;101438.72;7384069;19;19926;-64
2023/07/13 06:13:49;;;;;;;9.80;2.72;;;;;;;16.88;76.01;101437.69;7389229;19;19930;-62
2023/07/13 06:16:18;;;;;;;;;;;;;;;16.81;76.77;101440.41;7383922;19;20340;-65
2023/07/13 06:18:47;;;;;;;10.93;2.67;;;;;;;16.95;74.98;101441.28;7384417;19;19923;-66
2023/07/13 06:21:18;;;;;;;7.07;2.08;;;;;;;17.01;74.92;101451.31;7384645;19;19929;-66
2023/07/13 06:23:49;;;;;;;9.23;1.92;;;;;;;17.05;74.94;101447.16;7383503;19;19923;-67
2023/07/13 06:26:19;;;;;;;6.90;2.05;;;;;;;17.07;74.77;101454.09;7383261;19;20289;-65
2023/07/13 06:28:51;;;;;;;6.00;2.50;;;;;;;17.13;75.50;101444.22;7380547;19;19928;-65
2023/07/13 06:31:20;;;;;;;9.73;2.05;;;;;;;17.18;74.56;101455.34;7381950;19;20277;-65
2023/07/13 06:33:49;;;;;;;6.57;1.98;;;;;;;17.24;74.27;101449.94;7379396;19;19938;-66
2023/07/13 06:36:17;;;;;;;8.32;2.30;;;;;;;17.28;74.33;101463.97;7382086;19;20831;-66
2023/07/13 06:38:46;;;;;;;10.75;2.33;;;;;;;17.34;74.24;101456.88;7379945;19;19933;-65
2023/07/13 06:41:15;;;;;;;7.57;2.67;;;;;;;17.39;74.30;101465.22;7378657;19;19939;-66
2023/07/13 06:43:44;;;;;;;13.68;2.78;;;;;;;17.44;74.15;101474.47;7376730;19;19926;-66
2023/07/13 06:46:16;;;;;;;9.73;2.25;;;;;;;17.51;74.37;101477.22;7380821;19;19922;-66
2023/07/13 06:48:44;;;;;;;11.23;2.10;;;;;;;17.57;73.85;101458.16;7381075;19;20529;-65
2023/07/13 06:51:14;;;;;;;8.88;2.15;;;;;;;17.67;73.58;101468.66;7387693;19;19951;-66
2023/07/13 06:53:43;;;;;;;4.97;1.70;;;;;;;17.74;73.21;101477.66;7382046;19;19978;-66
2023/07/13 06:56:12;;;;;;;5.13;1.45;;;;;;;17.82;72.88;101472.00;7383181;19;20372;-66
2023/07/13 06:58:41;;;;;;;10.50;2.65;;;;;;;17.90;72.54;101471.81;7382945;19;19974;-65
2023/07/13 07:01:11;;;;;;;8.38;1.60;;;;;;;18.02;72.38;101481.03;7383343;19;20313;-67
2023/07/13 07:03:42;;;;;;;9.63;2.20;;;;;;;18.10;72.39;101483.53;7383704;19;19924;-66
2023/07/13 07:06:17;;;;;;;8.98;1.88;;;;;;;18.14;72.15;101476.63;7383851;19;20267;-66
2023/07/13 07:08:46;;;;;;;8.73;2.05;;;;;;;18.15;71.25;101491.09;7383292;19;19918;-65
2023/07/13 07:11:17;;;;;;;9.20;1.95;;;;;;;18.16;71.55;101478.31;7382127;19;19923;-65
2023/07/13 07:13:45;;;;;;;3.95;2.13;;;;;;;18.20;71.34;101491.31;7387756;19;19925;-66
2023/07/13 07:16:14;;;;;;;3.55;1.80;;;;;;;18.24;70.67;101488.97;7383179;19;19934;-66
2023/07/13 07:18:45;;;;;;;6.28;2.25;;;;;;;18.25;70.44;101488.75;7385490;19;19955;-66
2023/07/13 07:21:15;;;;;;;8.82;2.33;;;;;;;18.26;70.32;101490.44;7382538;19;19925;-66
2023/07/13 07:23:45;;;;;;;4.57;1.75;;;;;;;18.37;70.39;101491.69;7381310;19;19926;-64
2023/07/13 07:26:13;;;;;;;6.95;1.80;;;;;;;18.44;70.26;101497.97;7383429;19;19919;-66
2023/07/13 07:28:43;;;;;;;6.63;2.08;;;;;;;18.53;69.62;101483.91;7382845;19;20359;-64
2023/07/13 07:31:12;;;;;;;4.90;1.52;;;;;;;18.64;68.79;101498.78;7383506;19;19926;-64
2023/07/13 07:33:41;;;;;;;6.85;1.90;;;;;;;18.73;68.44;101502.94;7383026;19;21007;-64
2023/07/13 07:36:13;;;;;;;4.63;1.58;;;;;;;18.71;68.30;101501.50;7385652;19;19919;-64
2023/07/13 07:38:41;;;;;;;7.13;1.90;;;;;;;18.70;68.60;101488.88;7384328;19;21918;-65
2023/07/13 07:41:10;;;;;;;8.48;2.17;;;;;;;18.74;67.97;101496.44;7381577;19;19934;-65
2023/07/13 07:43:39;;;;;;;5.53;1.73;;;;;;;18.79;67.63;101479.41;7383538;19;19922;-65
2023/07/13 07:46:08;;;;;;;5.07;1.52;;;;;;;18.82;67.47;101487.16;7382501;19;20048;-64
2023/07/13 07:48:37;;;;;;;7.43;1.70;;;;;;;18.90;67.88;101485.03;7383465;19;19925;-65
2023/07/13 07:51:05;;;;;;;3.83;1.80;;;;;;;19.08;67.79;101483.47;7381945;19;19918;-65
2023/07/13 07:53:37;;;;;;;6.28;1.77;;;;;;;19.14;65.70;101480.72;7384289;19;19923;-66
2023/07/13 07:56:06;;;;;;;3.58;1.58;;;;;;;19.17;66.12;101472.09;7379761;19;20898;-65
2023/07/13 07:58:35;;;;;;;6.65;1.67;;;;;;;19.15;66.08;101478.84;7383273;19;19927;-64
2023/07/13 08:01:07;;;;;;;5.93;1.35;;;;;;;19.14;65.46;101480.72;7381860;19;19919;-65
2023/07/13 08:03:36;;;;;;;6.57;1.65;;;;;;;19.16;65.88;101484.06;7381614;19;19926;-65
2023/07/13 08:06:05;;;;;;;4.65;1.40;;;;;;;19.17;65.80;101479.44;7385620;19;19984;-66
2023/07/13 08:08:34;;;;;;;6.95;1.38;;;;;;;19.13;65.68;101491.84;7382427;19;20005;-65
2023/07/13 08:11:08;;;;;;;4.53;1.75;;;;;;;19.01;65.51;101492.56;7382200;19;19941;-65
2023/07/13 08:13:37;;;;;;;3.15;1.20;;;;;;;18.96;65.25;101505.16;7382206;19;19929;-65
2023/07/13 08:16:08;;;;;;;5.75;1.33;;;;;;;18.96;66.73;101502.44;7383010;19;20003;-65
2023/07/13 08:18:37;;;;;;;4.13;1.27;;;;;;;19.00;65.99;101498.22;7383089;19;19929;-65
2023/07/13 08:21:07;;;;;;;3.58;1.30;;;;;;;19.07;66.50;101496.28;7381396;19;19941;-64
2023/07/13 08:23:37;;;;;;;3.78;1.10;;;;;;;19.19;66.15;101496.47;7381539;19;19939;-65
2023/07/13 08:26:08;;;;;;;4.38;1.30;;;;;;;19.35;65.59;101496.78;7380027;19;19925;-65
2023/07/13 08:28:37;;;;;;;5.53;1.42;;;;;;;19.49;65.56;101494.84;7379281;19;19936;-65
2023/07/13 08:31:08;;;;;;;6.47;1.80;;;;;;;19.54;64.61;101495.03;7380928;19;19922;-66
2023/07/13 08:33:38;;;;;;;9.63;1.75;;;;;;;19.57;64.23;101489.09;7352798;19;19982;-65
2023/07/13 08:36:07;;;;;;;4.85;1.42;;;;;;;19.57;64.17;101489.09;7347234;19;19932;-65
2023/07/13 08:38:36;;;;;;;4.68;1.67;;;;;;;19.51;63.56;101509.09;7351009;19;19930;-65
2023/07/13 08:41:14;;;;;;;5.90;1.23;;;;;;;19.36;63.25;101508.56;7348133;19;20276;-65
2023/07/13 08:43:46;;;;;;;4.53;1.95;;;;;;;19.30;64.18;101518.44;7350563;19;19939;-65
2023/07/13 08:46:19;;;;;;;9.27;2.17;;;;;;;19.11;66.75;101565.00;7350701;19;19938;-67
2023/07/13 08:48:51;;;;;;;2.17;0.93;;;;;;;18.37;64.44;101532.59;7350282;19;23883;-66
2023/07/13 08:51:43;;;;;;;2.35;1.10;;;;;;;17.43;63.35;101559.94;7348587;19;19933;-66
2023/07/13 08:54:24;;;;;;;2.45;1.00;;;;;;;17.09;66.29;101540.97;7346186;19;19922;-66
2023/07/13 08:56:56;;;;;;;1.63;1.15;;;;;;;17.01;68.16;101550.16;7351522;19;20099;-67
2023/07/13 08:59:33;;;;;;;2.17;0.82;;;;;;;17.06;70.76;101541.41;7372523;19;19930;-67
2023/07/13 09:02:27;;;;;;;3.25;1.20;;;;;;;17.13;72.66;101540.38;7380628;19;19930;-67
2023/07/13 09:05:01;;;;;;;1.80;1.30;;;;;;;17.30;71.88;101531.88;7379719;19;19927;-67
2023/07/13 09:07:45;;;;;;;1.95;1.30;;;;;;;17.40;74.92;101526.84;7378524;19;20013;-67
2023/07/13 09:10:20;;;;;;;2.60;1.30;;;;;;;17.46;73.17;101529.59;7381218;19;20360;-66
2023/07/13 09:13:10;;;;;;;2.72;1.38;;;;;;;17.45;73.51;101529.78;7380974;19;19922;-66
2023/07/13 09:15:43;;;;;;;2.78;1.50;;;;;;;17.48;73.39;101540.28;7379425;19;19926;-66
2023/07/13 09:18:17;;;;;;;5.95;2.13;;;;;;;17.39;73.32;101546.94;7385895;19;19922;-66
2023/07/13 09:20:51;;;;;;;4.55;1.83;;;;;;;17.31;74.28;101537.09;7387224;19;19927;-67
2023/07/13 09:23:24;;;;;;;5.38;2.15;;;;;;;17.32;73.75;101559.72;7384493;19;20266;-66
2023/07/13 09:25:57;;;;;;;6.45;2.13;;;;;;;17.29;74.20;101565.59;7382980;19;19926;-67
2023/07/13 09:28:32;;;;;;;3.60;2.20;;;;;;;17.21;74.47;101578.31;7388474;19;19938;-67
2023/07/13 09:31:05;;;;;;;4.53;1.95;;;;;;;17.17;75.30;101573.50;7387798;19;20502;-67
2023/07/13 09:33:35;;;;;;;6.38;2.28;;;;;;;17.14;74.60;101592.94;7385322;19;19926;-67
2023/07/13 09:36:04;;;;;;;7.20;2.92;;;;;;;17.06;74.76;101566.75;7389365;19;19933;-67
2023/07/13 09:38:34;;;;;;;3.33;1.50;;;;;;;16.97;74.14;101569.81;7386021;19;20518;-67
2023/07/13 09:41:17;;;;;;;2.33;1.60;;;;;;;16.90;74.32;101575.25;7385547;19;19918;-67
2023/07/13 09:44:11;;;;;;;1.42;1.10;;;;;;;16.84;73.75;101570.59;7386924;19;20250;-67
2023/07/13 09:46:41;;;;;;;3.10;1.20;;;;;;;16.94;73.25;101565.66;7389204;19;19947;-67
2023/07/13 09:49:13;;;;;;;1.83;1.15;;;;;;;17.18;72.78;101556.94;7389722;19;19953;-67
2023/07/13 09:51:44;;;;;;;;;;;;;;;17.27;74.11;101559.47;7388211;19;19978;-67
2023/07/13 09:54:24;;;;;;;2.95;1.30;;;;;;;17.41;75.88;101551.16;7383491;19;20269;-66
2023/07/13 09:56:57;;;;;;;3.13;1.55;;;;;;;17.47;73.05;101546.78;7386055;19;19922;-67
2023/07/13 09:59:32;;;;;;;3.42;1.30;;;;;;;17.40;72.62;101545.91;7384709;19;19922;-66
2023/07/13 10:02:02;;;;;;;3.75;1.88;;;;;;;17.36;73.07;101548.22;7382891;19;19947;-67
2023/07/13 10:04:35;;;;;;;1.90;1.42;;;;;;;17.37;73.91;101549.91;7383254;19;19948;-67
2023/07/13 10:07:09;;;;;;;4.47;1.60;;;;;;;17.53;73.07;101554.13;7384254;19;19925;-67
2023/07/13 10:09:38;;;;;;;4.07;1.35;;;;;;;17.62;71.66;101563.81;7383715;19;19929;-66
2023/07/13 10:12:15;;;;;;;2.80;2.22;;;;;;;17.80;71.11;101560.50;7386130;19;19922;-67
2023/07/13 10:14:48;;;;;;;4.82;2.38;;;;;;;18.00;72.38;101566.81;7384216;19;20824;-66
2023/07/13 10:17:30;;;;;;;5.25;2.03;;;;;;;18.18;71.43;101552.53;7385098;19;19919;-67
2023/07/13 10:20:04;;;;;;;3.55;2.28;;;;;;;18.33;71.67;101566.81;7382468;19;19918;-67
2023/07/13 10:22:41;;;;;;;4.85;2.33;;;;;;;18.43;72.32;101561.75;7383127;19;22631;-66
2023/07/13 10:25:22;;;;;;;3.85;2.40;;;;;;;18.55;71.65;101562.84;7381377;19;19943;-66
2023/07/13 10:27:54;;;;;;;6.97;2.97;;;;;;;18.80;71.02;101552.91;7384795;19;20547;-67
2023/07/13 10:30:29;;;;;;;6.18;2.72;;;;;;;18.89;71.29;101578.09;7382621;19;19941;-67
2023/07/13 10:33:02;;;;;;;6.03;3.35;;;;;;;18.84;71.46;101573.28;7380775;19;19938;-66
2023/07/13 10:35:33;;;;;;;7.32;3.28;;;;;;;18.76;71.36;101570.78;7388158;19;19943;-66
2023/07/13 10:38:06;;;;;;;7.75;3.40;;;;;;;18.83;71.38;101587.97;7384343;19;19922;-66
2023/07/13 10:40:41;;;;;;;7.00;3.22;;;;;;;18.73;72.79;101573.91;7384068;19;19942;-66
2023/07/13 10:43:16;;;;;;;4.57;3.20;;;;;;;18.66;71.96;101569.53;7384481;19;19970;-67
2023/07/13 10:45:51;;;;;;;8.18;3.08;;;;;;;18.67;71.24;101569.31;7382449;19;19926;-67
2023/07/13 10:48:22;;;;;;;6.93;3.13;;;;;;;18.70;71.45;101563.44;7384537;19;19918;-66
2023/07/13 10:50:54;;;;;;;4.78;2.63;;;;;;;18.93;69.95;101569.25;7383313;19;19997;-67
2023/07/13 10:53:30;;;;;;;4.45;1.80;;;;;;;19.22;68.75;101567.88;7384275;19;20260;-66
2023/07/13 10:56:05;;;;;;;5.40;2.28;;;;;;;19.33;67.45;101569.91;7382957;19;19930;-66
2023/07/13 10:58:39;;;;;;;4.22;2.47;;;;;;;19.42;66.21;101567.78;7386041;19;19923;-66
2023/07/13 11:01:15;;;;;;;5.30;2.08;;;;;;;19.35;66.83;101569.72;7382016;19;19934;-66
2023/07/13 11:03:52;;;;;;;5.78;2.50;;;;;;;19.31;67.04;101576.66;7383706;19;19943;-66
2023/07/13 11:06:36;;;;;;;2.97;1.75;;;;;;;19.28;67.09;101567.03;7382772;19;19947;-66
2023/07/13 11:09:21;;;;;;;4.05;2.00;;;;;;;19.48;65.76;101580.59;7380442;19;19994;-66
2023/07/13 11:11:51;;;;;;;4.15;1.85;;;;;;;19.78;65.20;101589.06;7382397;19;20271;-66
2023/07/13 11:14:32;;;;;;;8.57;2.85;;;;;;;19.90;63.72;101592.75;7382166;19;19915;-66
2023/07/13 11:17:27;;;;;;;5.90;2.22;;;;;;;19.88;63.40;101582.06;7388097;19;19922;-66
2023/07/13 11:19:56;;;;;;;;;;;;;;;19.83;63.34;101567.34;7382993;19;19922;-67
2023/07/13 11:22:27;;;;;;;4.50;1.75;;;;;;;19.78;63.78;101584.44;7384390;19;19926;-67
2023/07/13 11:25:02;;;;;;;3.80;1.60;;;;;;;19.64;62.64;101566.41;7372580;19;20034;-66
2023/07/13 11:27:39;;;;;;;5.03;1.58;;;;;;;19.78;61.35;101578.97;7383560;19;19918;-65
2023/07/13 11:30:24;;;;;;;3.97;1.27;;;;;;;20.11;61.51;101586.06;7377751;19;20762;-65
2023/07/13 11:33:12;;;;;;;3.45;1.50;;;;;;;20.39;61.40;101589.25;7378174;19;19926;-65
2023/07/13 11:35:50;;;;;;;1.73;1.23;;;;;;;20.70;61.26;101583.69;7387088;19;19935;-65
2023/07/13 11:38:21;;;;;;;5.22;1.70;;;;;;;20.81;60.91;101582.94;7378642;19;19950;-66
2023/07/13 11:40:52;;;;;;;2.75;1.25;;;;;;;20.95;59.01;101582.78;7377240;19;19938;-66
2023/07/13 11:43:21;;;;;;;4.38;1.60;;;;;;;21.12;59.54;101578.38;7381794;19;20047;-66